Time;durP1;ratioP1;P1;durP2;ratioP2;P2;SDS_P1;SDS_P2;PMS_P1;PMS_P2;Temp;Humidity;BMP_temperature;BMP_pressure;BME280_temperature;BME280_humidity;BME280_pressure;Samples;Min_cycle;Max_cycle;Signal;HPM_P1;HPM_P2
2022/11/21 00:03:25;;;;;;;23.73;4.45;;;;;;;9.12;98.66;99492.00;8357866;28;20306;-47
2022/11/21 00:07:26;;;;;;;21.15;3.63;;;;;;;9.07;98.55;99491.63;8357650;28;20051;-48
2022/11/21 00:11:26;;;;;;;23.25;3.80;;;;;;;8.98;98.75;99500.63;8356181;28;20033;-48
2022/11/21 00:15:27;;;;;;;16.20;3.45;;;;;;;8.91;99.34;99491.47;8356591;28;20411;-47
2022/11/21 00:19:28;;;;;;;22.45;4.18;;;;;;;8.86;100.00;99485.69;8357012;28;20087;-48
2022/11/21 00:23:28;;;;;;;28.42;4.90;;;;;;;8.85;100.00;99484.03;8357161;28;20044;-49
2022/11/21 00:27:32;;;;;;;21.98;4.47;;;;;;;8.89;100.00;99490.78;8357516;28;20055;-50
2022/11/21 00:32:10;;;;;;;22.10;3.97;;;;;;;8.94;99.45;99488.47;8356864;28;20037;-48
2022/11/21 00:36:11;;;;;;;18.70;4.25;;;;;;;9.00;98.62;99483.28;8324061;28;20407;-48
2022/11/21 00:40:11;;;;;;;18.00;3.85;;;;;;;8.88;99.15;99478.31;8321686;28;20041;-49
2022/11/21 00:44:12;;;;;;;20.98;3.13;;;;;;;8.83;99.46;99475.22;8322261;28;20045;-48
2022/11/21 00:48:12;;;;;;;23.42;3.67;;;;;;;8.69;100.00;99473.09;8323950;28;20045;-48
2022/11/21 00:52:13;;;;;;;20.17;3.47;;;;;;;8.66;100.00;99468.03;8322279;28;20110;-48
2022/11/21 00:56:14;;;;;;;22.70;3.72;;;;;;;8.63;100.00;99466.47;8322063;28;20030;-48
2022/11/21 01:00:16;;;;;;;23.63;3.72;;;;;;;8.60;100.00;99468.63;8350016;28;20544;-47
2022/11/21 01:04:16;;;;;;;21.98;3.03;;;;;;;8.56;100.00;99472.63;8355956;28;20124;-48
2022/11/21 01:08:17;;;;;;;28.45;3.72;;;;;;;8.49;100.00;99471.53;8356082;28;20503;-48
2022/11/21 01:12:17;;;;;;;22.40;4.35;;;;;;;8.49;100.00;99471.53;8352902;28;20526;-48
2022/11/21 01:16:22;;;;;;;17.77;4.38;;;;;;;8.56;100.00;99478.84;8351578;28;20043;-48
2022/11/21 01:20:22;;;;;;;23.35;5.03;;;;;;;8.60;100.00;99465.94;8354317;28;20453;-48
2022/11/21 01:24:23;;;;;;;27.52;5.07;;;;;;;8.61;100.00;99464.94;8353008;28;20145;-49
2022/11/21 01:28:23;;;;;;;17.42;4.35;;;;;;;8.59;100.00;99458.84;8355673;28;20513;-48
2022/11/21 01:32:24;;;;;;;15.77;3.85;;;;;;;8.52;100.00;99460.47;8355489;28;20128;-48
2022/11/21 01:36:27;;;;;;;18.67;4.15;;;;;;;8.47;100.00;99457.38;8355146;28;20110;-48
2022/11/21 01:40:28;;;;;;;17.58;2.80;;;;;;;8.53;97.41;99472.91;8355170;28;20498;-48
2022/11/21 01:44:47;;;;;;;15.32;3.45;;;;;;;8.53;97.28;99483.69;8370172;28;20414;-49
2022/11/21 01:49:08;;;;;;;11.00;3.33;;;;;;;8.46;97.81;99485.31;8321624;28;20052;-49
2022/11/21 01:53:10;;;;;;;15.32;3.45;;;;;;;8.41;98.48;99490.28;8322624;28;20036;-47
2022/11/21 01:57:20;;;;;;;12.63;2.63;;;;;;;8.37;98.96;99497.84;8322845;28;20044;-47
2022/11/21 02:01:22;;;;;;;14.27;2.67;;;;;;;8.26;100.00;99491.84;8353510;28;20037;-48
2022/11/21 02:05:26;;;;;;;12.93;2.65;;;;;;;8.31;100.00;99501.16;8334363;28;20037;-47
2022/11/21 02:09:29;;;;;;;;;;;;;;;8.36;100.00;99498.00;8354466;28;20049;-51
2022/11/21 02:13:29;;;;;;;9.50;2.50;;;;;;;8.31;100.00;99498.47;8349903;28;19924;-48
2022/11/21 02:17:30;;;;;;;13.90;2.85;;;;;;;8.18;100.00;99499.78;8354325;28;20107;-47
2022/11/21 02:21:54;;;;;;;13.95;3.28;;;;;;;8.03;100.00;99502.94;8353173;28;20518;-48
2022/11/21 02:25:54;;;;;;;13.83;3.30;;;;;;;7.96;100.00;99501.88;8351930;28;20120;-48
2022/11/21 02:29:55;;;;;;;13.45;2.63;;;;;;;8.08;100.00;99511.44;8351607;28;20048;-49
2022/11/21 02:33:56;;;;;;;14.13;2.72;;;;;;;8.23;100.00;99516.38;8353000;28;20051;-48
2022/11/21 02:38:02;;;;;;;14.18;2.78;;;;;;;8.22;100.00;99517.31;8349002;28;20071;-48
2022/11/21 02:42:13;;;;;;;12.13;2.72;;;;;;;8.18;100.00;99510.53;8350494;28;20391;-48
2022/11/21 02:46:14;;;;;;;12.60;3.05;;;;;;;8.12;100.00;99505.75;8349515;28;20036;-48
2022/11/21 02:50:24;;;;;;;13.20;3.08;;;;;;;8.10;100.00;99508.59;8350653;28;20507;-48
2022/11/21 02:54:25;;;;;;;11.18;2.42;;;;;;;8.11;100.00;99506.78;8350586;28;20434;-51
2022/11/21 02:58:26;;;;;;;11.38;2.88;;;;;;;8.04;100.00;99510.06;8351149;28;20068;-48
2022/11/21 03:02:26;;;;;;;8.80;2.45;;;;;;;8.02;100.00;99525.50;8353264;28;20606;-48
2022/11/21 03:06:27;;;;;;;10.20;2.00;;;;;;;8.05;100.00;99522.50;8357493;28;20063;-48
2022/11/21 03:10:28;;;;;;;11.93;2.10;;;;;;;8.06;100.00;99529.56;8356343;28;20059;-48
2022/11/21 03:14:28;;;;;;;14.60;2.70;;;;;;;8.12;100.00;99527.28;8356372;28;20098;-49
2022/11/21 03:18:29;;;;;;;10.18;2.53;;;;;;;8.11;100.00;99529.13;8356540;28;20071;-48
2022/11/21 03:22:30;;;;;;;8.50;2.25;;;;;;;8.11;100.00;99531.00;8356677;28;20044;-49
2022/11/21 03:26:30;;;;;;;13.73;2.53;;;;;;;8.06;100.00;99526.88;8356151;28;20037;-48
2022/11/21 03:30:31;;;;;;;8.73;2.42;;;;;;;8.08;100.00;99516.81;8356004;28;20055;-48
2022/11/21 03:34:32;;;;;;;7.70;2.67;;;;;;;8.11;100.00;99522.91;8355724;28;20053;-51
2022/11/21 03:38:33;;;;;;;13.38;3.20;;;;;;;8.09;100.00;99518.50;8355877;28;20033;-50
2022/11/21 03:42:33;;;;;;;15.75;4.10;;;;;;;7.99;100.00;99512.34;8355662;28;20037;-48
2022/11/21 03:46:36;;;;;;;10.93;3.92;;;;;;;7.95;100.00;99516.31;8355842;28;20451;-50
2022/11/21 03:50:37;;;;;;;10.45;4.43;;;;;;;8.00;100.00;99519.41;8360450;28;20059;-49
2022/11/21 03:54:38;;;;;;;11.95;5.15;;;;;;;8.02;100.00;99517.41;8372390;28;20140;-50
2022/11/21 03:58:38;;;;;;;14.00;6.03;;;;;;;7.98;100.00;99521.41;8354750;28;20402;-51
2022/11/21 04:02:39;;;;;;;12.85;6.22;;;;;;;7.94;100.00;99524.56;8355743;28;20118;-49
2022/11/21 04:06:40;;;;;;;24.30;7.22;;;;;;;7.87;100.00;99526.16;8386599;28;20072;-49
2022/11/21 04:10:50;;;;;;;17.23;6.75;;;;;;;7.71;100.00;99518.69;8354018;28;20044;-49
2022/11/21 04:14:51;;;;;;;16.38;7.22;;;;;;;7.66;100.00;99520.13;8354578;28;20041;-53
2022/11/21 04:18:51;;;;;;;20.60;7.97;;;;;;;7.65;100.00;99516.59;8354563;28;20070;-50
2022/11/21 04:22:52;;;;;;;21.95;7.78;;;;;;;7.68;100.00;99516.28;8357377;28;20441;-49
2022/11/21 04:26:54;;;;;;;21.95;8.18;;;;;;;7.79;100.00;99526.88;8356888;28;20040;-48
2022/11/21 04:30:55;;;;;;;17.75;7.80;;;;;;;7.89;100.00;99533.06;8353420;28;20064;-48
2022/11/21 04:34:55;;;;;;;22.60;7.85;;;;;;;7.96;100.00;99528.78;8352633;28;20037;-49
2022/11/21 04:38:56;;;;;;;20.80;7.95;;;;;;;8.03;100.00;99534.44;8353076;28;20083;-49
2022/11/21 04:42:56;;;;;;;18.25;7.80;;;;;;;8.09;100.00;99534.66;8353116;28;20033;-49
2022/11/21 04:46:59;;;;;;;21.08;7.72;;;;;;;8.11;100.00;99520.22;8352853;28;20037;-49
2022/11/21 04:50:59;;;;;;;21.67;7.55;;;;;;;8.12;100.00;99521.91;8352216;28;20033;-52
2022/11/21 04:55:00;;;;;;;16.20;6.72;;;;;;;8.11;100.00;99520.22;8353139;28;20059;-49
2022/11/21 04:59:01;;;;;;;13.00;6.80;;;;;;;8.11;100.00;99514.84;8353592;28;20052;-52
2022/11/21 05:03:04;;;;;;;17.30;8.05;;;;;;;8.04;100.00;99510.06;8358643;28;20056;-49
2022/11/21 05:07:05;;;;;;;16.00;7.53;;;;;;;8.04;100.00;99510.06;8360946;28;20573;-50
2022/11/21 05:15:26;;;;;;;23.48;8.05;;;;;;;8.02;100.00;99506.66;8345593;28;20065;-49
2022/11/21 05:19:27;;;;;;;20.42;7.43;;;;;;;8.00;100.00;99508.63;8351814;28;20033;-49
2022/11/21 05:23:27;;;;;;;16.95;6.55;;;;;;;7.96;100.00;99496.47;8319985;28;20458;-51
2022/11/21 05:27:28;;;;;;;16.55;6.80;;;;;;;7.98;100.00;99505.28;8322294;28;20052;-49
2022/11/21 05:31:29;;;;;;;16.95;7.55;;;;;;;7.99;100.00;99512.34;8340180;28;20048;-50
2022/11/21 05:35:30;;;;;;;15.85;6.10;;;;;;;8.07;100.00;99508.91;8331758;28;20045;-47
2022/11/21 05:39:30;;;;;;;16.75;5.85;;;;;;;8.09;100.00;99507.75;8334807;28;20136;-48
2022/11/21 05:43:46;;;;;;;17.15;6.78;;;;;;;8.11;100.00;99496.81;8318769;28;20119;-48
2022/11/21 05:47:47;;;;;;;15.13;6.60;;;;;;;8.15;100.00;99505.47;8318781;28;20057;-47
2022/11/21 05:51:48;;;;;;;22.88;6.65;;;;;;;8.12;100.00;99500.38;8360939;28;20037;-48
2022/11/21 05:55:48;;;;;;;17.90;5.82;;;;;;;8.08;100.00;99506.06;8350177;28;20037;-48
2022/11/21 05:59:49;;;;;;;12.95;6.18;;;;;;;8.06;100.00;99499.97;8349922;28;20142;-48
2022/11/21 06:03:50;;;;;;;18.15;6.57;;;;;;;7.99;100.00;99500.72;8345288;28;20068;-48
2022/11/21 06:07:50;;;;;;;16.08;6.20;;;;;;;7.98;100.00;99504.41;8351585;28;20033;-48
2022/11/21 06:11:51;;;;;;;11.20;5.60;;;;;;;7.95;100.00;99494.81;8346559;28;20394;-47
2022/11/21 06:16:09;;;;;;;16.15;6.72;;;;;;;7.90;100.00;99485.50;8332729;28;20164;-48
2022/11/21 06:20:10;;;;;;;17.27;7.32;;;;;;;7.85;100.00;99477.00;8326067;28;20041;-48
2022/11/21 06:24:11;;;;;;;17.23;6.55;;;;;;;7.80;100.00;99480.13;8318836;28;20030;-48
2022/11/21 06:28:11;;;;;;;15.73;7.18;;;;;;;7.74;100.00;99469.97;8342816;28;20037;-49
2022/11/21 06:32:12;;;;;;;11.60;7.05;;;;;;;7.79;100.00;99473.06;8345679;28;20041;-48
2022/11/21 06:36:15;;;;;;;14.57;7.35;;;;;;;7.83;100.00;99473.59;8351093;28;20124;-47
2022/11/21 06:40:16;;;;;;;17.05;7.32;;;;;;;7.85;100.00;99472.47;8353278;28;20499;-51
2022/11/21 06:44:17;;;;;;;18.10;7.38;;;;;;;7.72;100.00;99474.63;8338295;28;20951;-48
2022/11/21 06:48:18;;;;;;;15.95;7.65;;;;;;;7.64;100.00;99492.53;8352829;28;20033;-49
2022/11/21 06:52:19;;;;;;;16.20;7.63;;;;;;;7.64;100.00;99488.00;8354180;28;20570;-48
2022/11/21 06:56:20;;;;;;;17.50;8.60;;;;;;;7.66;100.00;99483.31;8352915;28;20406;-49
2022/11/21 07:00:22;;;;;;;17.55;8.45;;;;;;;7.69;100.00;99479.50;8360352;28;20047;-49
2022/11/21 07:04:22;;;;;;;17.67;8.50;;;;;;;7.70;100.00;99484.72;8355880;28;20177;-49
2022/11/21 07:08:27;;;;;;;14.93;8.38;;;;;;;7.72;100.00;99488.09;8356330;28;20045;-48
2022/11/21 07:13:28;;;;;;;;;;;;;;;7.76;100.00;99486.81;8348455;28;20534;-49
2022/11/21 07:16:48;;;;;;;19.15;8.77;;;;;;;7.77;100.00;99491.19;8346178;28;20401;-49
2022/11/21 07:20:48;;;;;;;19.73;8.77;;;;;;;7.81;100.00;99487.19;8349529;28;20415;-48
2022/11/21 07:24:49;;;;;;;17.65;8.60;;;;;;;7.83;100.00;99485.22;8342889;28;20341;-50
2022/11/21 07:28:50;;;;;;;17.05;7.88;;;;;;;7.83;100.00;99485.22;8346280;28;20374;-49
2022/11/21 07:32:57;;;;;;;17.42;8.38;;;;;;;7.87;100.00;99485.78;8345423;28;20131;-49
2022/11/21 07:36:57;;;;;;;15.63;8.65;;;;;;;7.89;100.00;99484.63;8336060;28;20505;-50
2022/11/21 07:40:58;;;;;;;17.20;8.38;;;;;;;7.93;100.00;99485.19;8359364;28;20044;-49
2022/11/21 07:44:59;;;;;;;15.30;9.40;;;;;;;7.97;100.00;99473.13;8354398;28;20368;-49
2022/11/21 07:48:59;;;;;;;18.42;9.23;;;;;;;7.98;100.00;99464.91;8355131;28;20407;-50
2022/11/21 07:53:04;;;;;;;20.63;9.18;;;;;;;8.01;100.00;99455.66;8354985;28;20044;-49
2022/11/21 07:57:04;;;;;;;15.65;10.80;;;;;;;8.00;100.00;99468.28;8347717;28;20047;-50
2022/11/21 08:01:06;;;;;;;22.23;9.90;;;;;;;8.03;100.00;99467.97;8346623;28;20040;-50
2022/11/21 08:05:07;;;;;;;17.23;11.23;;;;;;;8.08;100.00;99473.75;8344742;28;20395;-49
2022/11/21 08:09:07;;;;;;;21.48;11.45;;;;;;;8.12;100.00;99465.38;8339192;28;20584;-49
2022/11/21 08:13:09;;;;;;;26.75;13.02;;;;;;;8.13;100.00;99461.69;8349780;28;20044;-50
2022/11/21 08:17:09;;;;;;;25.63;13.45;;;;;;;8.14;100.00;99463.41;8351532;28;20297;-49
2022/11/21 08:21:10;;;;;;;24.92;12.82;;;;;;;8.16;100.00;99461.38;8352440;28;20037;-49
2022/11/21 08:25:11;;;;;;;23.65;14.23;;;;;;;8.16;100.00;99454.16;8330994;28;20403;-49
2022/11/21 08:29:14;;;;;;;26.70;15.73;;;;;;;8.19;100.00;99453.00;8361583;28;20457;-49
2022/11/21 08:33:14;;;;;;;23.15;14.80;;;;;;;8.28;100.00;99460.19;8340212;28;20306;-49
2022/11/21 08:37:15;;;;;;;26.95;12.68;;;;;;;8.33;100.00;99460.59;8338423;28;20037;-50
2022/11/21 08:42:16;;;;;;;20.42;12.50;;;;;;;8.43;100.00;99462.25;8338694;28;20033;-49
2022/11/21 08:45:38;;;;;;;17.20;12.15;;;;;;;8.48;100.00;99449.13;8349268;28;20547;-49
2022/11/21 08:49:39;;;;;;;21.38;11.25;;;;;;;8.56;100.00;99453.75;8344909;28;20103;-49
2022/11/21 08:53:39;;;;;;;18.05;10.85;;;;;;;8.59;100.00;99451.63;8334285;28;20049;-49
2022/11/21 08:57:41;;;;;;;16.25;10.40;;;;;;;8.79;100.00;99444.22;8342926;28;20044;-50
2022/11/21 09:01:42;;;;;;;20.00;10.68;;;;;;;8.94;100.00;99423.78;8333457;28;20125;-50
2022/11/21 09:05:43;;;;;;;16.80;10.43;;;;;;;9.39;100.00;99419.03;8349920;28;20044;-49
2022/11/21 09:09:43;;;;;;;16.45;7.82;;;;;;;11.88;91.34;99410.16;8322392;28;20037;-49
2022/11/21 09:18:01;;;;;;;10.48;5.43;;;;;;;13.43;80.80;99407.00;8335011;28;20077;-50
2022/11/21 09:18:06;;;;;;;12.18;4.47;;;;;;;14.59;74.10;99406.88;8347795;28;20040;-50
2022/11/21 09:22:07;;;;;;;9.05;4.05;;;;;;;15.34;71.10;99407.97;8335244;28;20043;-50
2022/11/21 09:26:08;;;;;;;8.65;2.75;;;;;;;15.82;69.06;99405.41;8348693;28;20033;-50
2022/11/21 09:30:09;;;;;;;7.43;3.38;;;;;;;14.12;72.75;99409.19;8337530;28;20037;-50
2022/11/21 09:34:10;;;;;;;12.88;3.05;;;;;;;12.11;80.24;99403.97;8347060;28;20041;-49
2022/11/21 09:38:10;;;;;;;9.88;2.47;;;;;;;11.48;84.19;99404.88;8335035;28;20503;-50
2022/11/21 09:47:17;;;;;;;6.82;2.47;;;;;;;10.39;89.97;99399.19;8344138;27;20381;-48
2022/11/21 09:51:21;;;;;;;13.88;2.60;;;;;;;10.44;90.12;99391.44;8305829;28;20033;-50
2022/11/21 09:55:47;;;;;;;6.93;2.17;;;;;;;10.59;89.32;99384.34;8311051;28;20038;-48
2022/11/21 09:59:49;;;;;;;7.10;2.50;;;;;;;10.58;87.87;99382.66;8307653;28;20096;-48
2022/11/21 10:03:51;;;;;;;8.50;1.95;;;;;;;11.26;85.44;99367.69;8310968;28;20124;-49
2022/11/21 10:07:57;;;;;;;5.07;1.35;;;;;;;12.51;80.59;99372.03;8310673;28;20057;-49
2022/11/21 10:12:43;;;;;;;7.68;1.13;;;;;;;13.70;75.19;99376.47;8327182;28;20037;-48
2022/11/21 10:16:48;;;;;;;7.18;1.40;;;;;;;15.74;68.23;99351.91;8298780;28;20116;-49
2022/11/21 10:21:25;;;;;;;5.75;0.73;;;;;;;16.72;62.74;99354.97;8303172;28;20042;-48
2022/11/21 10:25:34;;;;;;;4.90;0.90;;;;;;;16.32;64.53;99356.75;8313127;28;20044;-49
2022/11/21 10:29:40;;;;;;;1.70;0.90;;;;;;;15.06;66.89;99344.50;8312171;28;20092;-48
2022/11/21 10:33:40;;;;;;;3.67;1.00;;;;;;;13.94;69.16;99335.41;8312172;28;20266;-50
2022/11/21 10:37:53;;;;;;;3.55;0.57;;;;;;;14.08;68.73;99326.38;8311251;28;20041;-49
2022/11/21 10:42:03;;;;;;;4.50;0.80;;;;;;;13.27;73.49;99321.13;8311508;28;20507;-49
2022/11/21 10:46:03;;;;;;;10.93;1.00;;;;;;;13.61;72.51;99317.84;8311846;28;20033;-52
2022/11/21 10:50:42;;;;;;;3.70;1.25;;;;;;;14.77;68.55;99301.16;8310751;28;20571;-49
2022/11/21 10:55:05;;;;;;;3.90;0.80;;;;;;;13.40;70.17;99296.06;8294627;28;20041;-51
2022/11/21 10:59:28;;;;;;;7.20;1.05;;;;;;;12.83;72.92;99300.38;8288521;28;20044;-50
2022/11/21 11:03:31;;;;;;;3.22;0.82;;;;;;;13.20;71.50;99287.63;8287705;28;20457;-57
2022/11/21 11:07:32;;;;;;;4.90;0.73;;;;;;;14.66;66.28;99277.19;8288964;28;20068;-51
2022/11/21 11:11:33;;;;;;;3.05;0.80;;;;;;;15.13;64.94;99263.72;8288556;28;20561;-51
2022/11/21 11:15:38;;;;;;;4.20;0.90;;;;;;;15.84;61.64;99256.13;8289679;28;20033;-49
2022/11/21 11:19:38;;;;;;;7.93;1.05;;;;;;;15.67;62.34;99256.50;8289117;28;20491;-50
2022/11/21 11:23:39;;;;;;;3.88;0.85;;;;;;;15.60;61.43;99244.75;8289845;28;20472;-50
2022/11/21 11:27:40;;;;;;;2.78;0.75;;;;;;;16.27;60.93;99230.22;8289459;28;20066;-49
2022/11/21 11:32:13;;;;;;;3.17;0.60;;;;;;;16.20;59.88;99232.09;8289759;28;20104;-50
2022/11/21 11:36:36;;;;;;;3.90;0.75;;;;;;;15.13;63.32;99213.91;8272934;28;20402;-51
2022/11/21 11:40:43;;;;;;;3.65;0.60;;;;;;;15.09;62.41;99212.59;8289255;28;20387;-50
2022/11/21 11:50:15;;;;;;;2.63;0.70;;;;;;;15.99;58.53;99205.84;8277939;28;20048;-50
2022/11/21 11:54:17;;;;;;;3.97;1.00;;;;;;;14.31;61.37;99196.59;8281321;28;20107;-52
2022/11/21 11:58:29;;;;;;;4.47;0.82;;;;;;;13.58;64.32;99177.84;8286774;28;20048;-52
2022/11/21 12:02:49;;;;;;;4.18;1.35;;;;;;;13.59;65.23;99179.56;8286792;28;20034;-49
2022/11/21 12:06:59;;;;;;;4.18;1.13;;;;;;;13.96;65.16;99173.03;8286161;28;20053;-49
2022/11/21 12:12:15;;;;;;;4.00;1.00;;;;;;;13.51;65.26;99165.25;8288000;28;20038;-52
2022/11/21 12:15:48;;;;;;;6.03;0.60;;;;;;;13.56;64.38;99147.34;8287948;28;20085;-52
2022/11/21 12:19:50;;;;;;;;;;;;;;;13.68;64.85;99145.81;8283793;28;20459;-51
2022/11/21 12:23:54;;;;;;;5.13;1.08;;;;;;;13.36;65.54;99137.31;8287675;28;19925;-49
2022/11/21 12:27:56;;;;;;;3.13;0.63;;;;;;;12.91;66.18;99133.00;8300108;28;20112;-52
2022/11/21 12:32:22;;;;;;;2.78;0.80;;;;;;;11.90;69.52;99128.34;8287554;28;20053;-49
2022/11/21 12:36:34;;;;;;;4.50;0.77;;;;;;;11.63;70.46;99121.63;8269179;28;20104;-49
2022/11/21 12:54:38;;;;;;;3.42;0.85;;;;;;;11.64;72.61;99101.66;8411212;28;20048;-51
2022/11/21 12:58:44;;;;;;;1.90;0.65;;;;;;;11.50;71.38;99094.28;8387630;28;20133;-49
2022/11/21 13:03:24;;;;;;;1.70;0.70;;;;;;;11.44;73.47;99089.59;8398750;28;20040;-48
2022/11/21 13:07:29;;;;;;;4.10;0.70;;;;;;;11.33;71.08;99071.09;8399303;28;20037;-49
2022/11/21 13:11:59;;;;;;;2.70;0.57;;;;;;;10.97;73.42;99072.69;8386398;28;20038;-49
2022/11/21 13:16:07;;;;;;;2.65;0.80;;;;;;;10.77;74.16;99062.50;8395576;28;20426;-48
2022/11/21 13:20:35;;;;;;;3.33;0.90;;;;;;;10.72;75.19;99060.34;8410364;28;20510;-49
2022/11/21 13:24:55;;;;;;;3.17;0.88;;;;;;;10.57;77.04;99040.47;8399935;28;20044;-48
2022/11/21 13:29:12;;;;;;;5.30;1.17;;;;;;;10.44;78.15;99042.91;8374576;28;20041;-50
2022/11/21 13:43:08;;;;;;;7.05;1.38;;;;;;;10.49;78.33;99013.50;8405100;27;20807;-48
2022/11/21 13:47:01;;;;;;;6.43;1.10;;;;;;;10.46;79.53;99011.16;8383697;28;20475;-49
2022/11/21 13:51:19;;;;;;;8.07;1.60;;;;;;;10.39;79.75;98991.25;8391825;28;20094;-48
2022/11/21 13:55:54;;;;;;;6.38;1.50;;;;;;;10.40;79.58;98979.44;8374728;28;20431;-49
2022/11/21 14:00:31;;;;;;;4.40;1.33;;;;;;;10.36;79.58;98975.41;8366873;28;20043;-50
2022/11/21 14:04:59;;;;;;;3.88;1.25;;;;;;;10.32;81.38;98955.19;8340560;28;20406;-49
2022/11/21 14:09:22;;;;;;;8.13;1.13;;;;;;;10.36;80.85;98937.59;8368033;28;20040;-49
2022/11/21 14:13:33;;;;;;;10.82;1.67;;;;;;;10.29;82.36;98922.28;8355197;28;20419;-52
2022/11/21 14:17:55;;;;;;;5.82;1.00;;;;;;;10.24;82.60;98920.09;8355284;28;20028;-50
2022/11/21 14:21:58;;;;;;;5.57;0.90;;;;;;;10.11;82.06;98909.06;8389240;28;20571;-50
2022/11/21 14:26:10;;;;;;;6.55;1.00;;;;;;;9.99;82.76;98889.69;8359535;28;20102;-51
2022/11/21 14:30:29;;;;;;;14.30;1.58;;;;;;;9.90;83.60;98884.50;8364732;28;20306;-50
2022/11/21 14:34:31;;;;;;;5.65;1.30;;;;;;;9.87;83.78;98879.44;8389446;28;20037;-51
2022/11/21 14:38:40;;;;;;;7.28;2.05;;;;;;;9.79;84.51;98879.50;8362071;28;20590;-52
2022/11/21 14:42:41;;;;;;;7.82;1.30;;;;;;;9.79;85.14;98874.09;8348599;28;20043;-50
2022/11/21 14:47:16;;;;;;;6.90;1.63;;;;;;;9.72;85.45;98848.81;8376774;28;20049;-49
2022/11/21 14:51:19;;;;;;;5.95;1.63;;;;;;;9.71;84.97;98847.16;8356656;28;20047;-50
2022/11/21 14:55:24;;;;;;;8.82;1.70;;;;;;;9.64;85.55;98838.91;8353364;28;20146;-53
2022/11/21 14:59:31;;;;;;;7.53;1.70;;;;;;;9.59;86.31;98822.44;8327291;28;20052;-52
2022/11/21 15:03:33;;;;;;;6.38;1.75;;;;;;;9.46;87.77;98805.13;8337837;28;20467;-49
2022/11/21 15:07:40;;;;;;;5.55;1.70;;;;;;;9.29;90.02;98800.78;8350056;28;20059;-53
2022/11/21 15:11:50;;;;;;;7.18;2.00;;;;;;;9.15;91.48;98794.28;8338844;28;20041;-50
2022/11/21 15:15:53;;;;;;;9.70;2.22;;;;;;;9.19;91.99;98802.84;8334774;28;20041;-52
2022/11/21 15:20:15;;;;;;;5.63;2.35;;;;;;;9.12;92.86;98791.09;8353072;28;20041;-49
2022/11/21 15:24:28;;;;;;;7.60;2.83;;;;;;;9.04;93.49;98783.88;8337917;28;20041;-50
2022/11/21 15:28:30;;;;;;;8.82;2.28;;;;;;;9.04;93.22;98799.19;8333969;28;20038;-49
2022/11/21 15:32:30;;;;;;;13.10;2.55;;;;;;;8.97;93.39;98782.03;8335502;28;20048;-50
2022/11/21 15:36:33;;;;;;;10.80;2.15;;;;;;;8.88;93.99;98766.91;8352355;28;20486;-49
2022/11/21 15:40:34;;;;;;;8.57;2.53;;;;;;;8.83;93.98;98753.97;8352613;28;20406;-49
2022/11/21 15:44:34;;;;;;;11.93;4.25;;;;;;;8.80;93.11;98757.00;8345714;28;20525;-52
2022/11/21 15:48:36;;;;;;;9.27;2.78;;;;;;;8.80;93.11;98754.31;8352401;28;20461;-51
2022/11/21 15:52:47;;;;;;;8.63;3.67;;;;;;;8.81;92.49;98757.84;8351493;28;20060;-49
2022/11/21 15:56:48;;;;;;;7.05;2.88;;;;;;;8.82;92.00;98736.13;8317112;28;20064;-48
2022/11/21 16:00:49;;;;;;;13.63;3.55;;;;;;;8.81;91.99;98741.69;8317229;28;20084;-49
2022/11/21 16:04:49;;;;;;;14.02;3.33;;;;;;;8.84;91.19;98725.16;8316346;28;20091;-49
2022/11/21 16:08:50;;;;;;;10.25;4.05;;;;;;;8.82;91.17;98725.34;8318337;28;20570;-49
2022/11/21 16:12:51;;;;;;;9.30;2.80;;;;;;;8.79;91.51;98720.31;8318074;28;20415;-49
2022/11/21 16:16:51;;;;;;;11.45;2.45;;;;;;;8.76;91.93;98709.03;8318749;28;20064;-52
2022/11/21 16:20:52;;;;;;;7.95;3.17;;;;;;;8.68;92.43;98700.97;8319207;28;20124;-50
2022/11/21 16:24:53;;;;;;;6.68;2.58;;;;;;;8.62;93.25;98688.19;8334573;28;20030;-52
2022/11/21 16:28:55;;;;;;;13.48;3.20;;;;;;;8.59;93.31;98675.91;8317509;28;20038;-49
2022/11/21 16:32:55;;;;;;;13.80;3.00;;;;;;;8.58;93.80;98652.69;8340824;28;20573;-50
2022/11/21 16:36:56;;;;;;;7.93;2.60;;;;;;;8.60;92.98;98625.59;8348665;28;20636;-49
2022/11/21 16:40:59;;;;;;;7.57;3.22;;;;;;;8.69;92.21;98629.94;8324616;28;20034;-50
2022/11/21 16:45:01;;;;;;;12.85;2.80;;;;;;;8.64;91.28;98608.06;8315512;28;20465;-50
2022/11/21 16:49:02;;;;;;;4.20;1.77;;;;;;;8.67;90.76;98603.16;8318204;28;20095;-49
2022/11/21 16:53:03;;;;;;;8.38;2.92;;;;;;;8.62;91.40;98591.22;8333475;28;20041;-50
2022/11/21 16:57:05;;;;;;;6.68;2.13;;;;;;;8.66;91.38;98595.25;8317674;28;20072;-51
2022/11/21 17:01:16;;;;;;;10.38;2.45;;;;;;;8.69;91.00;98601.13;8283992;28;20046;-49
2022/11/21 17:05:17;;;;;;;7.90;2.38;;;;;;;8.67;91.31;98591.53;8316550;28;20038;-52
2022/11/21 17:09:18;;;;;;;8.82;2.47;;;;;;;8.65;91.90;98596.25;8314274;28;20055;-51
2022/11/21 17:13:19;;;;;;;15.70;2.38;;;;;;;8.65;91.75;98609.72;8348641;28;20052;-50
2022/11/21 17:17:23;;;;;;;13.40;2.40;;;;;;;8.67;91.58;98586.16;8312189;28;20116;-50
2022/11/21 17:21:25;;;;;;;10.73;4.10;;;;;;;8.64;92.31;98583.81;8310028;28;20065;-49
2022/11/21 17:25:26;;;;;;;9.45;2.20;;;;;;;8.68;92.25;98604.00;8313706;28;20107;-49
2022/11/21 17:29:29;;;;;;;10.70;3.10;;;;;;;8.65;93.05;98615.13;8349212;28;20045;-49
2022/11/21 17:33:29;;;;;;;13.70;3.33;;;;;;;8.63;93.26;98598.31;8323761;28;20561;-50
2022/11/21 17:37:30;;;;;;;12.30;4.60;;;;;;;8.55;94.39;98579.47;8346556;28;20418;-51
2022/11/21 17:41:31;;;;;;;10.63;5.10;;;;;;;8.54;94.48;98575.13;8273211;28;20045;-50
2022/11/21 17:45:34;;;;;;;14.80;4.95;;;;;;;8.50;95.34;98557.63;8297875;28;20057;-49
2022/11/21 17:49:35;;;;;;;14.90;5.10;;;;;;;8.56;95.02;98556.91;8301659;28;20041;-52
2022/11/21 17:53:40;;;;;;;14.90;4.57;;;;;;;8.56;95.38;98546.13;8299344;28;20045;-51
2022/11/21 17:57:41;;;;;;;15.00;6.50;;;;;;;8.55;95.34;98558.78;8311106;28;20095;-50
2022/11/21 18:01:41;;;;;;;17.27;6.20;;;;;;;8.55;95.56;98568.72;8338803;28;20048;-52
2022/11/21 18:05:42;;;;;;;9.90;4.63;;;;;;;8.53;95.99;98568.03;8333450;28;20038;-50
2022/11/21 18:09:43;;;;;;;11.38;4.13;;;;;;;8.54;96.19;98575.13;8317704;28;20060;-50
2022/11/21 18:13:44;;;;;;;12.02;3.92;;;;;;;8.52;96.88;98569.06;8296057;28;20041;-51
2022/11/21 18:17:45;;;;;;;14.98;3.80;;;;;;;8.58;96.35;98565.66;8284163;28;20026;-49
2022/11/21 18:21:46;;;;;;;9.07;3.25;;;;;;;8.69;94.98;98557.22;8284708;28;20034;-50
2022/11/21 18:25:46;;;;;;;12.18;3.15;;;;;;;8.76;93.71;98552.78;8295207;28;20044;-49
2022/11/21 18:29:47;;;;;;;9.35;3.90;;;;;;;8.78;93.48;98537.28;8313440;28;20552;-49
2022/11/21 18:33:49;;;;;;;12.95;2.58;;;;;;;8.78;93.36;98523.81;8297979;28;20116;-50
2022/11/21 18:37:50;;;;;;;7.68;2.97;;;;;;;8.79;92.49;98520.09;8302797;28;20399;-50
2022/11/21 18:41:51;;;;;;;12.93;2.67;;;;;;;8.76;92.86;98515.06;8297801;28;20066;-48
2022/11/21 18:45:51;;;;;;;6.43;3.60;;;;;;;8.78;92.38;98508.47;8289793;28;20092;-49
2022/11/21 18:49:52;;;;;;;6.93;2.85;;;;;;;8.88;91.97;98481.31;8305037;28;20407;-53
2022/11/21 18:53:55;;;;;;;14.60;3.30;;;;;;;8.84;92.13;98494.28;8298473;28;20422;-49
2022/11/21 18:57:56;;;;;;;12.82;2.95;;;;;;;8.86;92.47;98494.13;8317869;28;20237;-50
2022/11/21 19:01:57;;;;;;;6.63;2.55;;;;;;;8.89;92.59;98477.59;8320686;28;20175;-50
2022/11/21 19:05:58;;;;;;;10.18;3.15;;;;;;;8.90;92.33;98479.25;8321482;28;20415;-51
2022/11/21 19:09:59;;;;;;;10.32;3.40;;;;;;;8.90;92.54;98469.31;8321687;28;20082;-49
2022/11/21 19:14:00;;;;;;;14.07;3.30;;;;;;;8.93;92.77;98482.44;8322072;28;20052;-53
2022/11/21 19:18:00;;;;;;;13.68;3.42;;;;;;;8.93;92.86;98478.91;8317409;28;20576;-49
2022/11/21 19:22:03;;;;;;;16.27;3.25;;;;;;;9.00;92.67;98469.09;8319103;28;20042;-49
2022/11/21 19:26:06;;;;;;;11.52;3.03;;;;;;;9.02;92.49;98462.50;8318722;28;20172;-49
2022/11/21 19:30:07;;;;;;;11.02;3.50;;;;;;;8.99;92.85;98456.63;8318087;28;20130;-48
2022/11/21 19:34:08;;;;;;;13.27;3.38;;;;;;;8.99;93.19;98446.69;8309021;28;20041;-49
2022/11/21 19:38:09;;;;;;;9.10;3.20;;;;;;;9.02;93.26;98434.69;8308149;28;20041;-51
2022/11/21 19:42:09;;;;;;;16.50;5.10;;;;;;;9.01;93.02;98433.03;8314953;28;20504;-49
2022/11/21 19:46:12;;;;;;;14.63;3.60;;;;;;;9.05;93.13;98412.78;8310378;28;20127;-49
2022/11/21 19:50:14;;;;;;;9.10;3.20;;;;;;;9.01;92.83;98416.88;8313799;28;20037;-49